Latest Weather Observations for Avalon

IDV60901

Issued at 1:25 pm EST Wednesday 23 July 2014 (issued every 10 minutes, with the page automatically refreshed every 10 minutes)

About weather observations | Map of Melbourne area stations | Latest observations for Melbourne area | Other Formats
Station Details ID: 087113 Name: AVALON AIRPORT Lat: -38.03 Lon: 144.48 Height: 10.6 m
Data from the previous 72 hours. | See also: Recent months at Avalon
Date/Time
EST
Tmp

°C
App
Tmp
°C
Dew
Point
°C
Rel
Hum
%
Delta-T

°C
Wind Press
QNH
hPa
Press
MSL
hPa
Rain
since
9 am
mm
Dir
 
Spd
km/h
Gust
km/h
Spd
kts
Gust
kts
23/01:13pm 6.6 4.7 6.5 99 0.0 NNE 6 9 3 5 1021.1 - 0.0
23/01:00pm 6.5 4.5 6.4 99 0.0 NNE 6 9 3 5 1021.4 - 0.0
23/12:30pm 6.1 3.9 6.1 100 0.0 NE 7 11 4 6 1021.9 - 0.0
23/12:00pm 5.6 3.5 5.6 100 0.0 NE 6 9 3 5 1022.5 1022.5 0.0
23/11:47am 5.3 2.9 5.3 100 0.0 NNE 7 11 4 6 1022.9 - 0.0
23/11:30am 5.3 3.1 5.3 100 0.0 N 6 9 3 5 1023.4 - 0.0
23/11:00am 5.1 2.9 5.1 100 0.0 NNE 6 9 3 5 1023.8 - 0.0
23/10:50am 5.1 2.3 5.1 100 0.0 NNE 9 11 5 6 1023.9 - 0.0
23/10:30am 5.3 2.9 5.3 100 0.0 NNE 7 11 4 6 1024.0 - 0.0
23/10:00am 5.5 2.8 5.5 100 0.0 N 9 11 5 6 1024.2 - 0.0
23/09:30am 5.3 2.5 5.3 100 0.0 NE 9 13 5 7 1024.1 - 0.0
23/09:00am 5.1 1.9 5.0 99 0.0 NE 11 17 6 9 1024.1 1024.1 0.2
23/08:30am 5.3 2.1 5.2 99 0.0 NE 11 13 6 7 1024.0 - 0.2
23/08:00am 5.5 2.4 5.4 99 0.0 NE 11 17 6 9 1024.0 - 0.0
23/07:30am 5.8 2.7 5.7 99 0.0 NE 11 15 6 8 1024.1 - 0.0
23/07:00am 5.9 3.6 5.8 99 0.0 ENE 7 13 4 7 1023.8 - 0.0
23/06:30am 5.9 3.2 5.8 99 0.0 ENE 9 15 5 8 1023.7 - 0.0
23/06:00am 6.1 3.1 6.0 99 0.0 ENE 11 13 6 7 1023.5 1023.5 0.0
23/05:40am 6.2 3.2 6.1 99 0.0 NE 11 17 6 9 1023.7 - 0.0
23/05:32am 6.2 3.6 6.1 99 0.0 NE 9 13 5 7 1023.6 - 0.0
23/05:30am 6.2 3.6 6.1 99 0.0 NE 9 13 5 7 1023.5 - 0.0
23/05:00am 5.9 3.6 5.8 99 0.0 N 7 11 4 6 1023.5 - 0.0
23/04:38am 6.0 3.7 5.9 99 0.0 N 7 11 4 6 1023.6 - 0.0
23/04:30am 6.0 3.7 5.9 99 0.0 N 7 11 4 6 1023.6 - 0.0
23/04:00am 6.2 3.6 6.1 99 0.0 N 9 11 5 6 1023.6 - 0.0
23/03:30am 6.2 3.2 6.1 99 0.0 N 11 13 6 7 1023.7 - 0.0
23/03:00am 5.0 1.4 4.9 99 0.0 N 13 15 7 8 1024.0 1024.0 0.0
23/02:30am 2.3 -0.1 2.2 99 0.0 N 4 7 2 4 1024.0 - 0.0
23/02:16am 1.9 0.2 1.8 99 0.0 CALM 0 0 0 0 1024.1 - 0.0
23/02:00am 0.9 -1.0 0.8 99 0.0 CALM 0 0 0 0 1024.0 - 0.0
23/01:30am 2.0 0.3 1.9 99 0.0 CALM 0 0 0 0 1024.1 - 0.0
23/01:00am 1.3 -1.6 1.2 99 0.0 NW 6 6 3 3 1024.3 - 0.0
23/12:43am 1.3 -1.8 1.2 99 0.0 NW 7 7 4 4 1024.4 - 0.0
23/12:30am 0.9 -2.3 0.8 99 0.0 NW 7 9 4 5 1024.5 - 0.0
23/12:28am 0.9 -2.3 0.8 99 0.0 NW 7 9 4 5 1024.6 - 0.0
23/12:00am 1.0 -2.2 0.9 99 0.0 NW 7 7 4 4 1024.8 1024.8 0.0
 
Date/Time
EST
Tmp

°C
App
Tmp
°C
Dew
Point
°C
Rel
Hum
%
Delta-T

°C
Wind Press
QNH
hPa
Press
MSL
hPa
Rain
since
9 am
mm
Dir
 
Spd
km/h
Gust
km/h
Spd
kts
Gust
kts
22/11:30pm 0.4 -3.2 0.3 99 0.0 NNW 9 11 5 6 1025.1 - 0.0
22/11:00pm 0.2 -3.9 0.1 99 0.0 N 11 13 6 7 1025.1 - 0.0
22/10:51pm 0.2 -3.5 0.1 99 0.0 N 9 13 5 7 1025.1 - 0.0
22/10:41pm 1.0 -3.3 0.9 99 0.0 NNW 13 13 7 7 1025.1 - 0.0
22/10:30pm 1.7 -1.7 1.6 99 0.0 NNW 9 11 5 6 1025.2 - 0.0
22/10:26pm 1.3 -2.2 1.2 99 0.0 NNW 9 11 5 6 1025.2 - 0.0
22/10:12pm 1.4 -2.1 1.3 99 0.0 NW 9 11 5 6 1025.2 - 0.0
22/10:00pm 1.4 -1.7 1.3 99 0.0 WNW 7 7 4 4 1025.3 - 0.0
22/09:30pm 1.0 -2.2 0.9 99 0.0 NNW 7 9 4 5 1025.4 - 0.0
22/09:04pm 1.3 -0.9 1.0 98 0.1 N 2 7 1 4 1025.3 - 0.0
22/09:00pm 1.6 -0.2 1.3 98 0.1 CALM 0 0 0 0 1025.3 1025.3 0.0
22/08:50pm 1.7 -0.1 1.4 98 0.1 CALM 0 4 0 2 1025.3 - 0.0
22/08:40pm 2.1 -0.4 1.8 98 0.1 N 4 6 2 3 1025.2 - 0.0
22/08:30pm 2.0 -0.5 1.6 97 0.2 N 4 6 2 3 1025.1 - 0.0
22/08:00pm 4.7 2.1 4.4 98 0.1 NE 7 9 4 5 1024.8 - 0.0
22/07:59pm 5.0 2.5 4.7 98 0.1 NE 7 9 4 5 1024.8 - 0.0
22/07:30pm 6.1 3.8 5.7 97 0.2 NE 7 7 4 4 1024.8 - 0.0
22/07:00pm 6.7 4.7 6.3 97 0.2 NE 6 7 3 4 1024.6 - 0.0
22/06:30pm 6.5 3.8 5.8 95 0.3 ENE 9 9 5 5 1024.5 - 0.0
22/06:00pm 6.5 4.3 5.5 93 0.4 E 6 7 3 4 1024.5 1024.5 0.0
22/05:30pm 7.3 5.1 6.1 92 0.5 ESE 7 9 4 5 1024.4 - 0.0
22/05:00pm 8.4 6.3 6.7 89 0.8 ESE 7 9 4 5 1024.5 - 0.0
22/04:30pm 9.3 6.6 7.3 87 0.9 E 11 13 6 7 1024.4 - 0.0
22/04:11pm 10.1 7.4 7.5 84 1.2 E 11 13 6 7 1024.5 - 0.0
22/04:00pm 10.6 8.0 7.7 82 1.4 E 11 15 6 8 1024.5 - 0.0
22/03:30pm 11.0 8.0 7.5 79 1.7 E 13 15 7 8 1024.6 - 0.0
22/03:00pm 11.2 8.7 8.1 81 1.5 E 11 13 6 7 1024.6 1024.6 0.0
22/02:30pm 10.6 8.4 7.8 83 1.4 ESE 9 13 5 7 1024.8 - 0.0
22/02:00pm 11.1 9.3 7.8 80 1.6 NE 7 9 4 5 1024.9 - 0.0
22/01:30pm 9.9 9.0 7.7 86 1.1 NNW 2 9 1 5 1025.3 - 0.0
22/01:09pm 8.7 7.7 7.2 90 0.7 W 2 6 1 3 1025.6 - 0.0
22/01:00pm 8.4 6.5 6.9 90 0.7 W 6 7 3 4 1025.7 - 0.0
22/12:30pm 8.6 7.6 7.4 92 0.6 WSW 2 6 1 3 1026.4 - 0.0
22/12:00pm 7.7 5.7 7.1 96 0.3 W 7 9 4 5 1026.8 1026.8 0.0
22/11:37am 7.6 5.8 7.3 98 0.1 W 6 11 3 6 1026.9 - 0.0
22/11:30am 7.8 6.5 7.7 99 0.0 W 4 9 2 5 1026.9 - 0.0
22/11:27am 7.7 6.4 7.6 99 0.0 W 4 9 2 5 1027.0 - 0.0
22/11:00am 7.3 5.3 7.2 99 0.0 WSW 7 11 4 6 1027.3 - 0.0
22/10:53am 7.2 5.2 7.1 99 0.0 SW 7 11 4 6 1027.3 - 0.0
22/10:47am 7.1 5.1 7.0 99 0.0 WSW 7 11 4 6 1027.3 - 0.0
22/10:30am 7.0 5.0 6.9 99 0.0 W 7 9 4 5 1027.3 - 0.0
22/10:00am 6.8 5.7 6.7 99 0.0 W 2 6 1 3 1027.2 - 0.0
22/09:33am 6.1 4.0 6.0 99 0.0 WNW 6 7 3 4 1027.1 - 0.0
22/09:30am 6.1 4.0 6.0 99 0.0 WNW 6 7 3 4 1027.1 - 0.0
22/09:00am 5.1 2.8 5.0 99 0.0 W 6 7 3 4 1026.8 1026.8 0.0
22/08:30am 4.4 2.4 4.3 99 0.0 W 4 7 2 4 1026.5 - 0.0
22/08:00am 4.0 1.5 3.9 99 0.0 NW 6 9 3 5 1026.4 - 0.0
22/07:46am 4.0 1.3 3.9 99 0.0 NW 7 9 4 5 1026.4 - 0.0
22/07:30am 3.8 1.7 3.7 99 0.0 NW 4 7 2 4 1026.3 - 0.0
22/07:27am 3.8 2.0 3.7 99 0.0 NW 2 6 1 3 1026.2 - 0.0
22/07:02am 3.3 1.5 3.2 99 0.0 WNW 2 7 1 4 1025.8 - 0.0
22/07:00am 3.2 1.0 3.1 99 0.0 WNW 4 7 2 4 1025.8 - 0.0
22/06:30am 2.7 -0.6 2.6 99 0.0 W 9 13 5 7 1025.6 - 0.0
22/06:00am 2.6 -0.7 2.5 99 0.0 WNW 9 11 5 6 1025.2 1025.2 0.0
22/05:30am 1.4 -2.1 1.3 99 0.0 NW 9 11 5 6 1025.3 - 0.0
22/05:09am 0.5 -2.8 0.4 99 0.0 NW 7 9 4 5 1025.1 - 0.0
22/05:01am 0.4 -2.9 0.3 99 0.0 NW 7 9 4 5 1025.1 - 0.0
22/05:00am 0.3 -3.0 0.2 99 0.0 NW 7 9 4 5 1025.1 - 0.0
22/04:53am 0.2 -3.1 0.1 99 0.0 NW 7 7 4 4 1025.1 - 0.0
22/04:30am 0.5 -1.4 0.4 99 0.0 CALM 0 0 0 0 1025.0 - 0.0
22/04:00am 0.8 -2.2 0.7 99 0.0 NW 6 6 3 3 1024.8 - 0.0
22/03:37am 1.2 -1.8 1.1 99 0.0 W 6 6 3 3 1024.8 - 0.0
22/03:30am 0.9 -2.1 0.8 99 0.0 W 6 7 3 4 1024.7 - 0.0
22/03:00am 1.3 -2.2 1.2 99 0.0 NW 9 11 5 6 1024.9 1024.9 0.0
22/02:30am 1.7 -1.4 1.6 99 0.0 NNW 7 9 4 5 1024.8 - 0.0
22/02:00am 2.1 -1.3 2.0 99 0.0 NW 9 11 5 6 1024.9 - 0.0
22/01:30am 2.8 -0.1 2.7 99 0.0 NNW 7 9 4 5 1025.0 - 0.0
22/01:00am 3.0 -0.6 2.9 99 0.0 NW 11 13 6 7 1025.3 - 0.0
22/12:41am 3.2 -0.8 3.1 99 0.0 NW 13 15 7 8 1025.4 - 0.0
22/12:30am 3.4 -0.1 3.3 99 0.0 NNW 11 13 6 7 1025.4 - 0.0
22/12:00am 3.5 0.4 3.4 99 0.0 NW 9 11 5 6 1025.5 1025.5 0.0
 
Date/Time
EST
Tmp

°C
App
Tmp
°C
Dew
Point
°C
Rel
Hum
%
Delta-T

°C
Wind Press
QNH
hPa
Press
MSL
hPa
Rain
since
9 am
mm
Dir
 
Spd
km/h
Gust
km/h
Spd
kts
Gust
kts
21/11:45pm 3.4 0.2 3.3 99 0.0 WNW 9 11 5 6 1025.6 - 0.0
21/11:30pm 2.9 -0.3 2.8 99 0.0 W 9 11 5 6 1025.7 - 0.0
21/11:16pm 3.2 0.0 3.1 99 0.0 W 9 11 5 6 1025.8 - 0.0
21/11:03pm 3.4 0.2 3.3 99 0.0 W 9 11 5 6 1025.8 - 0.0
21/11:00pm 3.4 0.2 3.3 99 0.0 W 9 11 5 6 1025.8 - 0.0
21/10:54pm 3.3 0.1 3.2 99 0.0 WSW 9 11 5 6 1025.8 - 0.0
21/10:30pm 3.3 0.5 3.2 99 0.0 W 7 11 4 6 1025.7 - 0.0
21/10:28pm 3.2 0.4 3.1 99 0.0 W 7 9 4 5 1025.7 - 0.0
21/10:20pm 3.0 0.2 2.9 99 0.0 WNW 7 9 4 5 1025.6 - 0.0
21/10:00pm 3.6 0.9 3.5 99 0.0 NW 7 9 4 5 1025.5 - 0.0
21/09:30pm 4.2 1.6 4.1 99 0.0 NNW 7 7 4 4 1025.4 - 0.0
21/09:08pm 3.9 0.8 3.8 99 0.0 NNW 9 11 5 6 1025.3 - 0.0
21/09:00pm 4.5 1.2 4.4 99 0.0 N 11 11 6 6 1025.3 1025.3 0.0
21/08:30pm 5.2 2.4 5.1 99 0.0 N 9 11 5 6 1025.3 - 0.0
21/08:05pm 5.1 2.3 5.0 99 0.0 N 9 11 5 6 1025.1 - 0.0
21/08:00pm 5.3 2.5 5.2 99 0.0 N 9 9 5 5 1025.1 - 0.0
21/07:30pm 7.1 5.1 7.0 99 0.0 N 7 7 4 4 1025.1 - 0.0
21/07:00pm 6.2 4.0 6.1 99 0.0 N 7 9 4 5 1025.1 - 0.0
21/06:38pm 6.4 3.8 6.0 97 0.2 N 9 11 5 6 1024.9 - 0.0
21/06:33pm 6.1 3.9 5.5 96 0.3 NNE 6 9 3 5 1024.9 - 0.0
21/06:30pm 6.2 4.1 5.6 96 0.3 NE 6 7 3 4 1024.9 - 0.0
21/06:00pm 7.8 5.8 7.2 96 0.3 ESE 7 7 4 4 1024.6 1024.6 0.0
21/05:30pm 7.6 5.1 6.5 93 0.5 ESE 9 11 5 6 1024.5 - 0.0
21/05:08pm 8.5 6.1 7.1 91 0.7 ESE 9 9 5 5 1024.6 - 0.0
21/05:00pm 9.0 6.7 7.6 91 0.7 E 9 11 5 6 1024.5 - 0.0
21/04:30pm 10.0 7.9 8.1 88 0.9 E 9 11 5 6 1024.5 - 0.0
21/04:00pm 10.4 7.9 8.0 85 1.2 ESE 11 13 6 7 1024.5 - 0.0
21/03:30pm 10.7 8.1 7.9 83 1.4 ESE 11 13 6 7 1024.5 - 0.0
21/03:00pm 11.1 9.0 8.3 83 1.4 ESE 9 11 5 6 1024.3 1024.3 0.0
21/02:30pm 11.8 9.8 8.6 81 1.6 ESE 9 11 5 6 1024.3 - 0.0
21/02:00pm 11.4 9.9 9.0 85 1.2 ESE 7 11 4 6 1024.4 - 0.0
21/01:30pm 10.8 9.2 8.7 87 1.0 ESE 7 9 4 5 1024.7 - 0.0
21/01:00pm 10.4 8.8 8.8 90 0.8 ESE 7 9 4 5 1025.0 - 0.0
21/12:30pm 9.7 8.2 8.6 93 0.5 SE 6 9 3 5 1025.5 - 0.0
21/12:00pm 9.3 7.6 8.5 95 0.4 SE 7 9 4 5 1025.9 1025.9 0.0
21/11:30am 9.7 8.5 9.4 98 0.1 E 6 7 3 4 1026.2 - 0.0
21/11:00am 9.1 8.9 9.0 99 0.0 CALM 0 0 0 0 1026.5 - 0.0
21/10:30am 8.3 7.9 8.2 99 0.0 CALM 0 0 0 0 1026.6 - 0.0
21/10:00am 7.4 5.6 7.3 99 0.0 WNW 6 7 3 4 1026.5 - 0.0
21/09:46am 6.5 4.3 6.4 99 0.0 WNW 7 9 4 5 1026.5 - 0.0
21/09:31am 5.7 3.4 5.6 99 0.0 NW 7 9 4 5 1026.5 - 0.0
21/09:30am 5.6 3.3 5.5 99 0.0 NW 7 9 4 5 1026.5 - 0.0
21/09:00am 4.8 2.5 4.7 99 0.0 NNW 6 9 3 5 1026.4 1026.4 0.0
21/08:58am 4.8 2.9 4.7 99 0.0 NNW 4 9 2 5 1026.4 - 0.0
21/08:30am 3.9 2.5 3.8 99 0.0 CALM 0 0 0 0 1026.4 - 0.0
21/08:00am 3.3 1.8 3.2 99 0.0 CALM 0 0 0 0 1026.4 - 0.0
21/07:30am 3.2 0.4 3.1 99 0.0 NW 7 9 4 5 1026.3 - 0.0
21/07:00am 3.6 0.9 3.5 99 0.0 NNW 7 9 4 5 1026.1 - 0.0
21/06:44am 3.1 -0.1 3.0 99 0.0 NW 9 9 5 5 1026.1 - 0.0
21/06:32am 3.0 0.2 2.9 99 0.0 NW 7 7 4 4 1026.0 - 0.0
21/06:30am 3.0 0.3 2.9 99 0.0 NW 6 7 3 4 1026.0 - 0.0
21/06:15am 3.3 1.8 3.2 99 0.0 CALM 0 0 0 0 1025.9 - 0.0
21/06:00am 3.4 2.0 3.3 99 0.0 CALM 0 0 0 0 1025.8 1025.8 0.0
21/05:30am 3.6 2.2 3.5 99 0.0 CALM 0 6 0 3 1025.8 - 0.0
21/05:27am 3.5 1.7 3.4 99 0.0 N 2 6 1 3 1025.8 - 0.0
21/05:00am 3.9 2.5 3.8 99 0.0 CALM 0 0 0 0 1025.7 - 0.0
21/04:30am 4.1 1.5 4.0 99 0.0 N 7 9 4 5 1025.8 - 0.0
21/04:23am 3.9 0.8 3.8 99 0.0 N 9 9 5 5 1025.8 - 0.0
21/04:06am 3.6 0.5 3.5 99 0.0 NNW 9 9 5 5 1025.8 - 0.0
21/04:00am 3.8 0.7 3.7 99 0.0 NNW 9 11 5 6 1025.9 - 0.0
21/03:36am 4.2 1.8 4.1 99 0.0 NW 6 7 3 4 1026.1 - 0.0
21/03:30am 3.9 1.2 3.8 99 0.0 NW 7 9 4 5 1026.1 - 0.0
21/03:00am 4.3 1.7 4.2 99 0.0 NW 7 9 4 5 1026.2 1026.2 0.0
21/02:30am 3.8 0.7 3.7 99 0.0 NW 9 11 5 6 1026.2 - 0.0
21/02:00am 4.1 1.1 4.0 99 0.0 NW 9 9 5 5 1026.1 - 0.0
21/01:34am 4.2 1.2 4.1 99 0.0 WNW 9 9 5 5 1026.2 - 0.0
21/01:30am 3.6 0.5 3.5 99 0.0 WNW 9 9 5 5 1026.3 - 0.0
21/01:06am 3.5 0.7 3.4 99 0.0 WNW 7 9 4 5 1026.2 - 0.0
21/01:00am 3.4 0.8 3.3 99 0.0 WNW 6 7 3 4 1026.3 - 0.0
21/12:54am 3.5 0.7 3.4 99 0.0 WNW 7 7 4 4 1026.3 - 0.0
21/12:30am 3.9 1.2 3.8 99 0.0 NW 7 9 4 5 1026.3 - 0.0
21/12:00am 4.4 1.8 4.3 99 0.0 NW 7 9 4 5 1026.4 1026.4 0.0
 
Date/Time
EST
Tmp

°C
App
Tmp
°C
Dew
Point
°C
Rel
Hum
%
Delta-T

°C
Wind Press
QNH
hPa
Press
MSL
hPa
Rain
since
9 am
mm
Dir
 
Spd
km/h
Gust
km/h
Spd
kts
Gust
kts
20/11:49pm 4.1 1.1 4.0 99 0.0 NW 9 9 5 5 1026.5 - 0.0
20/11:30pm 4.4 1.8 4.3 99 0.0 WNW 7 9 4 5 1026.8 - 0.0
20/11:09pm 4.6 2.1 4.5 99 0.0 WNW 7 9 4 5 1026.9 - 0.0
20/11:00pm 4.5 1.6 4.4 99 0.0 NW 9 11 5 6 1027.0 - 0.0
20/10:30pm 4.4 1.4 4.3 99 0.0 NW 9 9 5 5 1027.0 - 0.0
20/10:15pm 4.8 1.9 4.7 99 0.0 NW 9 9 5 5 1027.0 - 0.0
20/10:13pm 4.8 1.9 4.7 99 0.0 NW 9 9 5 5 1027.0 - 0.0
20/10:11pm 4.9 2.0 4.8 99 0.0 NW 9 9 5 5 1027.1 - 0.0
20/10:00pm 4.8 2.3 4.7 99 0.0 WNW 7 11 4 6 1027.0 - 0.0
20/09:56pm 4.7 1.8 4.6 99 0.0 NW 9 11 5 6 1027.0 - 0.0
20/09:43pm 4.8 2.5 4.7 99 0.0 WNW 6 9 3 5 1027.0 - 0.0
20/09:42pm 4.8 2.5 4.7 99 0.0 WNW 6 9 3 5 1027.0 - 0.0
20/09:41pm 5.0 3.1 4.9 99 0.0 WNW 4 9 2 5 1027.0 - 0.0
20/09:38pm 4.9 3.4 4.8 99 0.0 NW 2 9 1 5 1027.0 - 0.0
20/09:30pm 5.8 4.8 5.7 99 0.0 CALM 0 0 0 0 1027.0 - 0.0
20/09:29pm 5.8 4.8 5.7 99 0.0 CALM 0 0 0 0 1026.9 - 0.0
20/09:00pm 6.5 4.5 6.4 99 0.0 NNW 6 7 3 4 1027.0 1027.0 0.0
20/08:30pm 6.8 5.2 6.5 98 0.1 NNW 4 7 2 4 1026.9 - 0.0
20/08:11pm 7.7 7.1 7.4 98 0.1 CALM 0 6 0 3 1026.9 - 0.0
20/08:00pm 7.5 6.8 7.1 97 0.2 CALM 0 0 0 0 1026.9 - 0.0
20/07:55pm 7.2 6.5 6.8 97 0.2 CALM 0 0 0 0 1026.9 - 0.0
20/07:30pm 8.0 7.1 7.6 97 0.2 N 2 6 1 3 1027.0 - 0.0
20/07:00pm 7.5 5.6 6.6 94 0.4 N 6 7 3 4 1026.8 - 0.0
20/06:30pm 8.3 6.4 7.4 94 0.4 NE 7 9 4 5 1026.8 - 0.0
20/06:00pm 8.4 6.1 7.3 93 0.5 E 9 11 5 6 1026.6 1026.6 0.0
20/05:30pm 9.2 7.0 7.8 91 0.7 ENE 9 13 5 7 1026.6 - 0.0
20/05:00pm 10.7 9.2 9.1 90 0.8 E 7 9 4 5 1026.6 - 0.0
20/04:30pm 11.3 9.4 9.2 87 1.0 E 9 9 5 5 1026.5 - 0.0
20/04:00pm 11.6 9.8 9.3 86 1.2 E 9 11 5 6 1026.6 - 0.0
20/03:30pm 12.2 9.8 8.5 78 1.8 E 11 15 6 8 1026.6 - 0.0
20/03:00pm 13.7 12.6 6.8 63 3.3 SE 2 7 1 4 1026.5 1026.5 0.0
20/02:30pm 13.6 12.0 7.8 68 2.9 SSE 6 9 3 5 1026.6 - 0.0
20/02:00pm 13.7 12.3 9.0 73 2.4 WSW 6 13 3 7 1026.7 - 0.0
20/01:30pm 12.9 11.9 9.0 77 2.0 W 4 9 2 5 1027.0 - 0.0

Latest Capital City Observations: Canberra | Sydney | Melbourne | Brisbane | Adelaide | Perth | Hobart | Darwin

Other Formats:

Comma delimited format used in spreadsheet applications
http://www.bom.gov.au/fwo/IDV60901/IDV60901.94854.axf

JavaScript Object Notation format (JSON) in row-major order
http://www.bom.gov.au/fwo/IDV60901/IDV60901.94854.json